Osaka Airport, Japan

5:12 AM JST on September 03, 2014 (GMT +0900)
Tokura-nishi | Change Station
CLOSE
Current Station
Personal Weather Station
Location: Toyonaka, OSAKA
Elevation: 16 ft
Nearby Weather Stations

Elev 16 ft 34.76 °N, 135.45 °E | Updated 9 seconds ago

Mostly Cloudy
Mostly Cloudy
75.7 °F
Feels Like 77 °F
N
0.0
Wind Variable Wind from SSE
Gusts 0.0 mph

Today
High -- | Low -- °F
--% Chance of Precip.
Yesterday
High -- | Low -- °F
Precip. -- in
5:32 AM 6:22 PM
First Quarter, 54% visible
Pressure 29.89 in
Visibility 6.2 miles
Clouds Few 2000 ft
Mostly Cloudy 12000 ft
Heat Index 77 °F
Dew Point 67 °F
Humidity 74%
Rainfall 0.00 in
Snow Depth Not available.
UV 0.0 out of 12
Pollen Not available.
Air Quality Not available.
Flu Activity Not available.
METAR RJOO 022000Z 07009KT 9999 FEW020 BKN120 BKN/// 24/19 Q1012 RMK 1CU020 5AC120 A2989

More Conditions Fewer Conditions

Pressure 29.89 in
Visibility 6.2 miles
Clouds Few 2000 ft
Mostly Cloudy 12000 ft
Heat Index 77 °F
Dew Point 67 °F
Humidity 74%
Rainfall 0.00 in
Snow Depth Not available.
UV 0.0 out of 12
Pollen Not available.
Air Quality Not available.
Flu Activity Not available.
METAR RJOO 022000Z 07009KT 9999 FEW020 BKN120 BKN/// 24/19 Q1012 RMK 1CU020 5AC120 A2989

More Conditions Fewer Conditions

10-Day Weather Forecast

Almanac

Astronomy

Sep. 03, 2014 Rise Set
Actual Time 5:32 AM JST 6:22 PM JST
Civil Twilight 5:06 AM JST 6:48 PM JST
Nautical Twilight 4:35 AM JST 7:18 PM JST
Astronomical Twilight 4:04 AM JST 7:49 PM JST
Moon 1:20 PM JST (9/3) 11:55 PM JST (9/3)
Length of Visible Light 13h 42m
Length of Day
12h 50m
Tomorrow will be 2m 6s shorter.
First Quarter, 54% of the Moon is Illuminated
Sep 2
First Quarter
Sep 8
Full
Sep 15
Last Quarter
Sep 24
New
Oct 1
First Quarter

Yesterday's Extremes

Country Highs Country Lows

Community

WunderPhotos

Upload Photos

1,749,752 photos uploaded!

WunderBlogs® & News

By Dr. Jeff Masters
Director of Meteorology, Weather Underground
By Kari Strenfel
Meteorologist, Weather Underground
By Christopher C. Burt
Weather Historian, Weather Underground
September 2, 2014
September 2, 2014
September 2, 2014

Nearby

Snow Depth

Not available.

Earthquake Activity

City Distance Mag. Time & Date
No recent earthquake activity has been reported nearby.
Minimum magnitude displayed is 2.5.

Coastal Water Temperatures

Place Temperature
No Stations Reporting

Nearby Weather Stations